Forbes Road, Pennsylvania
Current Conditions -  °F | °C
As of 12:15 AM on Tuesday 23 Dec 2014 (Local Time) from KLBE Reporting Station
Unknown Precip Unknown Precip  
Wind Chill: 35°   Ceiling: 11000
Heat Index: 41°   Visibility: 10mi
Dew Point: 36°   Wind: 9mph
Humidity: 81%   Direction: 160°SSE
Pressure: 29.98"   Gusts: NA
Location:  40.35°N, 79.52°W
Report Text: KLBE 230515Z AUTO 16008KT 10SM UP SCT095 BKN110 05/02 A2998 RMK AO2
Loading
Personal Weather Stations






























Interactive Weather Map New forecast layout! Learn more

10-Day Weather Forecast

Advertisements
Track Severe Weather on mobile